Time;durP1;ratioP1;P1;durP2;ratioP2;P2;SDS_P1;SDS_P2;PMS_P1;PMS_P2;Temp;Humidity;BMP_temperature;BMP_pressure;BME280_temperature;BME280_humidity;BME280_pressure;Samples;Min_cycle;Max_cycle;Signal;HPM_P1;HPM_P2
2023/10/17 00:02:54;;;;;;;;;;;;;;;28.93;76.58;100955.34;5039219;28;70281;-41
2023/10/17 00:05:23;;;;;;;;;;;;;;;28.94;76.54;100959.69;5039969;28;66630;-41
2023/10/17 00:07:58;;;;;;;;;;;;;;;28.94;76.79;100971.31;5040278;28;69868;-41
2023/10/17 00:10:31;;;;;;;;;;;;;;;28.98;77.58;100973.63;5035146;28;66719;-42
2023/10/17 00:13:25;;;;;;;;;;;;;;;28.99;77.63;100980.69;5039329;28;70730;-42
2023/10/17 00:15:55;;;;;;;;;;;;;;;29.02;78.01;100991.91;5037452;28;68079;-41
2023/10/17 00:18:25;;;;;;;;;;;;;;;29.04;78.33;100983.63;5038437;28;70353;-42
2023/10/17 00:21:09;;;;;;;;;;;;;;;29.06;78.45;100986.94;5040723;28;66126;-41
2023/10/17 00:23:39;;;;;;;;;;;;;;;29.08;78.50;100984.88;5041152;28;70655;-41
2023/10/17 00:26:14;;;;;;;;;;;;;;;29.08;78.88;100982.19;5039114;28;66828;-41
2023/10/17 00:28:52;;;;;;;;;;;;;;;29.12;79.16;100983.44;5037658;28;69700;-42
2023/10/17 00:31:22;;;;;;;;;;;;;;;29.13;79.10;100982.41;5055717;28;65927;-41
2023/10/17 00:34:34;;;;;;;;;;;;;;;29.15;79.47;100975.75;5051334;28;69617;-43
2023/10/17 00:36:51;;;;;;;;;;;;;;;29.16;79.81;100976.59;5039230;28;65542;-41
2023/10/17 00:39:31;;;;;;;;;;;;;;;29.17;79.88;100980.97;5039324;28;70318;-44
2023/10/17 00:44:40;;;;;;;;;;;;;;;29.18;80.54;100990.72;5056472;28;69757;-43
2023/10/17 00:47:18;;;;;;;;;;;;;;;29.19;80.40;100992.38;5041756;28;65764;-42
2023/10/17 00:49:50;;;;;;;;;;;;;;;29.12;80.17;100992.38;5045642;28;69706;-42
2023/10/17 00:52:25;;;;;;;;;;;;;;;29.10;80.40;100985.50;5055967;28;66411;-43
2023/10/17 00:54:55;;;;;;;;;;;;;;;29.10;80.27;100988.22;5041334;28;70529;-41
2023/10/17 00:57:27;;;;;;;;;;;;;;;29.16;79.81;100987.38;5044456;28;66955;-41
2023/10/17 01:00:08;;;;;;;;;;;;;;;29.19;79.23;100986.97;5043716;28;70703;-40
2023/10/17 01:02:44;;;;;;;;;;;;;;;29.25;77.41;100991.53;5039639;28;67057;-40
2023/10/17 01:05:16;;;;;;;;;;;;;;;29.29;76.42;100992.81;5057739;28;70358;-41
2023/10/17 01:07:46;;;;;;;;;;;;;;;29.32;75.73;100995.09;5047724;28;65436;-39
2023/10/17 01:10:18;;;;;;;;;;;;;;;29.36;75.45;101003.59;5058145;28;70174;-40
2023/10/17 01:12:56;;;;;;;;;;;;;;;29.39;75.00;101009.44;5041275;28;66743;-40
2023/10/17 01:15:28;;;;;;;;;;;;;;;29.43;74.33;101003.63;5037986;28;70193;-40
2023/10/17 01:18:04;;;;;;;;;;;;;;;29.47;74.45;101012.97;5043968;28;65904;-40
2023/10/17 01:20:36;;;;;;;;;;;;;;;29.49;73.93;101009.03;5040241;28;69298;-39
2023/10/17 01:23:07;;;;;;;;;;;;;;;29.52;73.85;101010.47;5042897;28;66302;-39
2023/10/17 01:25:42;;;;;;;;;;;;;;;29.55;73.81;101019.00;5031448;28;70505;-45
2023/10/17 01:28:12;;;;;;;;;;;;;;;29.58;73.41;101020.44;5041560;28;66401;-40
2023/10/17 01:30:42;;;;;;;;;;;;;;;29.61;73.47;101028.16;5041741;28;70487;-41
2023/10/17 01:33:12;;;;;;;;;;;;;;;29.64;72.85;101033.16;5040340;28;65907;-40
2023/10/17 01:35:44;;;;;;;;;;;;;;;29.66;72.96;101039.19;5052802;28;68925;-40
2023/10/17 01:38:17;;;;;;;;;;;;;;;29.69;72.95;101040.66;5054628;28;65419;-39
2023/10/17 01:40:46;;;;;;;;;;;;;;;29.71;72.55;101042.13;5043056;28;69454;-40
2023/10/17 01:43:16;;;;;;;;;;;;;;;29.74;72.30;101038.16;5033475;28;66009;-40
2023/10/17 01:45:48;;;;;;;;;;;;;;;29.76;72.25;101050.44;5030648;28;69938;-40
2023/10/17 01:48:21;;;;;;;;;;;;;;;29.78;72.74;101053.78;5041924;28;66056;-39
2023/10/17 01:50:51;;;;;;;;;;;;;;;29.80;72.56;101048.97;5040064;28;69750;-39
2023/10/17 01:53:22;;;;;;;;;;;;;;;29.83;72.60;101058.53;5038046;28;65781;-41
2023/10/17 01:56:06;;;;;;;;;;;;;;;29.86;72.19;101049.19;5040710;28;70283;-40
2023/10/17 01:58:37;;;;;;;;;;;;;;;29.89;72.04;101052.28;5044047;28;65609;-39
2023/10/17 02:01:14;;;;;;;;;;;;;;;29.93;71.79;101058.13;5047140;28;68734;-40
2023/10/17 02:03:45;;;;;;;;;;;;;;;29.96;72.12;101046.88;5055720;28;66285;-38
2023/10/17 02:06:16;;;;;;;;;;;;;;;29.98;71.98;101044.81;5054470;28;70334;-40
2023/10/17 02:08:46;;;;;;;;;;;;;;;30.00;72.07;101042.69;5042145;28;66535;-40
2023/10/17 02:11:24;;;;;;;;;;;;;;;30.03;71.81;101036.88;5057070;28;70544;-39
2023/10/17 02:13:59;;;;;;;;;;;;;;;30.06;71.99;101036.44;5027520;28;66483;-40
2023/10/17 02:16:31;;;;;;;;;;;;;;;30.09;71.60;101035.19;5042260;28;70475;-40
2023/10/17 02:19:10;;;;;;;;;;;;;;;30.11;71.91;101035.81;5040389;28;66808;-40
2023/10/17 02:21:43;;;;;;;;;;;;;;;30.12;71.42;101035.63;5050977;28;70810;-40
2023/10/17 02:24:13;;;;;;;;;;;;;;;30.15;71.36;101027.09;5045274;28;65748;-40
2023/10/17 02:27:08;;;;;;;;;;;;;;;30.19;71.16;101036.41;5039437;28;69457;-40
2023/10/17 02:29:38;;;;;;;;;;;;;;;30.22;71.62;101024.38;5047224;28;66491;-41
2023/10/17 02:32:12;;;;;;;;;;;;;;;30.26;71.13;101031.03;5039299;28;68952;-39
2023/10/17 02:34:43;;;;;;;;;;;;;;;30.28;71.20;101023.53;5038154;28;66310;-39
2023/10/17 02:37:18;;;;;;;;;;;;;;;30.30;71.05;101013.31;5038174;28;70305;-40
2023/10/17 02:39:50;;;;;;;;;;;;;;;30.32;71.09;101016.66;5040564;28;66656;-40
2023/10/17 02:42:20;;;;;;;;;;;;;;;30.35;71.27;101023.53;5036734;28;70174;-42
2023/10/17 02:44:50;;;;;;;;;;;;;;;30.38;70.64;101001.44;5039025;28;66156;-41
2023/10/17 02:47:20;;;;;;;;;;;;;;;30.40;70.75;101011.00;5040204;28;70592;-39
2023/10/17 03:26:42;;;;;;;;;;;;;;;30.69;69.96;100971.72;5051192;28;66965;-41
2023/10/17 03:29:13;;;;;;;;;;;;;;;30.72;69.92;100965.03;5037416;28;68995;-40
2023/10/17 03:31:45;;;;;;;;;;;;;;;30.72;69.78;100960.44;5036882;28;66639;-40
2023/10/17 03:34:21;;;;;;;;;;;;;;;30.77;69.80;100956.25;5025374;28;70135;-40
2023/10/17 03:36:51;;;;;;;;;;;;;;;30.77;69.70;100951.66;5036739;28;65965;-40
2023/10/17 03:39:27;;;;;;;;;;;;;;;30.79;69.71;100943.34;5036211;28;69568;-40
2023/10/17 03:41:58;;;;;;;;;;;;;;;30.81;69.61;100943.97;5052720;28;66981;-41
2023/10/17 03:44:30;;;;;;;;;;;;;;;30.83;69.59;100939.16;5036370;28;70196;-40
2023/10/17 03:47:04;;;;;;;;;;;;;;;30.86;69.27;100944.16;5035927;28;66597;-40
2023/10/17 03:49:39;;;;;;;;;;;;;;;30.87;69.30;100934.97;5036731;28;70733;-41
2023/10/17 03:52:10;;;;;;;;;;;;;;;30.89;69.35;100938.28;5046212;28;67452;-42
2023/10/17 03:54:44;;;;;;;;;;;;;;;30.91;69.29;100928.06;5040048;28;70308;-40
2023/10/17 03:57:15;;;;;;;;;;;;;;;30.92;69.09;100921.59;5041449;28;66971;-41
2023/10/17 03:59:51;;;;;;;;;;;;;;;30.94;69.17;100922.22;5038709;28;69910;-41
2023/10/17 04:02:22;;;;;;;;;;;;;;;30.95;69.20;100923.84;5037335;28;65168;-40
2023/10/17 04:04:57;;;;;;;;;;;;;;;30.97;68.87;100913.66;5037462;28;69799;-40
2023/10/17 04:07:29;;;;;;;;;;;;;;;30.99;68.95;100911.56;5040725;28;66595;-41
2023/10/17 04:12:58;;;;;;;;;;;;;;;31.02;69.01;100916.53;5040155;28;67801;-47
2023/10/17 04:15:31;;;;;;;;;;;;;;;31.04;68.96;100897.34;5035250;28;68906;-44
2023/10/17 04:18:02;;;;;;;;;;;;;;;31.05;69.16;100894.41;5049352;28;66011;-43
2023/10/17 04:20:37;;;;;;;;;;;;;;;31.06;68.81;100890.63;5053362;28;69781;-41
2023/10/17 04:23:21;;;;;;;;;;;;;;;31.08;68.90;100890.44;5050397;28;66508;-41
2023/10/17 04:25:54;;;;;;;;;;;;;;;31.09;68.88;100887.50;5051069;28;70033;-42
2023/10/17 04:28:26;;;;;;;;;;;;;;;31.11;69.02;100881.84;5050525;28;66550;-41
2023/10/17 04:30:57;;;;;;;;;;;;;;;31.14;68.77;100881.41;5046942;28;69086;-40
2023/10/17 04:33:28;;;;;;;;;;;;;;;31.14;68.93;100876.81;5042040;28;65531;-41
2023/10/17 04:35:59;;;;;;;;;;;;;;;31.16;68.48;100874.72;5039426;28;68865;-40
2023/10/17 04:38:39;;;;;;;;;;;;;;;31.19;68.91;100873.44;5040413;28;67345;-40
2023/10/17 04:44:04;;;;;;;;;;;;;;;31.22;68.53;100850.50;5039606;28;66423;-43
2023/10/17 04:46:49;;;;;;;;;;;;;;;31.25;68.57;100855.47;5038181;28;70684;-40
2023/10/17 04:49:21;;;;;;;;;;;;;;;31.27;68.31;100853.38;5041209;28;67008;-40
2023/10/17 04:52:10;;;;;;;;;;;;;;;31.29;68.54;100853.97;5040419;28;71400;-41
2023/10/17 04:54:42;;;;;;;;;;;;;;;31.30;68.50;100840.19;5038255;28;66756;-40
2023/10/17 04:57:16;;;;;;;;;;;;;;;31.33;68.37;100838.91;5039973;28;71095;-42
2023/10/17 06:17:28;;;;;;;;;;;;;;;31.92;66.99;100715.38;5042075;28;66362;-41
2023/10/17 06:19:58;;;;;;;;;;;;;;;31.93;66.72;100706.19;5041019;28;70065;-42
2023/10/17 06:31:21;;;;;;;;;;;;;;;32.03;66.45;100665.72;5040494;28;70635;-41
2023/10/17 06:33:39;;;;;;;;;;;;;;;32.06;66.34;100659.00;5039616;28;66814;-41
2023/10/17 06:36:24;;;;;;;;;;;;;;;32.07;66.38;100649.84;5036550;28;69473;-40
2023/10/17 06:38:54;;;;;;;;;;;;;;;32.10;66.24;100634.97;5033512;28;65848;-41
2023/10/17 06:41:38;;;;;;;;;;;;;;;32.11;65.95;100628.47;5041214;28;69516;-40
2023/10/17 06:44:11;;;;;;;;;;;;;;;32.14;66.13;100623.41;5042950;28;66896;-41
2023/10/17 06:46:55;;;;;;;;;;;;;;;32.18;65.92;100634.59;5043261;28;70112;-40
2023/10/17 06:50:01;;;;;;;;;;;;;;;32.21;65.86;100623.31;5037538;28;66346;-39
2023/10/17 06:54:50;;;;;;;;;;;;;;;32.27;65.62;100625.06;5041307;28;66879;-40
2023/10/17 06:57:20;;;;;;;;;;;;;;;32.29;65.78;100617.53;5041230;28;70560;-40
2023/10/17 06:59:52;;;;;;;;;;;;;;;32.32;65.69;100619.75;5041842;28;66105;-40
2023/10/17 07:02:28;;;;;;;;;;;;;;;32.35;65.67;100616.56;5040833;28;69866;-38
2023/10/17 07:05:01;;;;;;;;;;;;;;;32.37;65.72;100614.41;5042179;28;65926;-41
2023/10/17 07:07:39;;;;;;;;;;;;;;;32.42;65.45;100611.81;5037120;28;69741;-40
2023/10/17 07:10:37;;;;;;;;;;;;;;;32.45;65.48;100611.34;5037815;28;67408;-40
2023/10/17 07:13:26;;;;;;;;;;;;;;;32.49;65.61;100618.00;5039653;28;70426;-44
2023/10/17 07:16:48;;;;;;;;;;;;;;;32.52;65.35;100611.28;5040599;28;66168;-40
2023/10/17 07:18:54;;;;;;;;;;;;;;;32.56;65.04;100617.88;5042702;28;70600;-40
2023/10/17 07:21:24;;;;;;;;;;;;;;;32.53;65.28;100612.09;5042417;28;66708;-40
2023/10/17 07:23:56;;;;;;;;;;;;;;;32.64;65.12;100609.34;5040807;28;69688;-39
2023/10/17 07:29:05;;;;;;;;;;;;;;;32.69;65.02;100597.78;5034007;28;70433;-40
2023/10/17 07:31:36;;;;;;;;;;;;;;;32.72;64.76;100587.25;5041704;28;66928;-41
2023/10/17 07:36:37;;;;;;;;;;;;;;;32.83;64.63;100595.63;5039656;28;65463;-41
2023/10/17 07:39:22;;;;;;;;;;;;;;;32.86;64.48;100590.53;5039808;28;70573;-41
2023/10/17 07:41:55;;;;;;;;;;;;;;;32.90;64.63;100586.28;5034197;28;65596;-41
2023/10/17 07:44:26;;;;;;;;;;;;;;;32.95;64.04;100588.25;5041168;28;70523;-41
2023/10/17 07:47:19;;;;;;;;;;;;;;;32.99;64.34;100594.03;5031448;28;66257;-39
2023/10/17 07:49:49;;;;;;;;;;;;;;;33.05;64.17;100579.53;5040026;28;70622;-40
2023/10/17 07:52:22;;;;;;;;;;;;;;;33.06;63.83;100583.88;5027680;28;66825;-40
2023/10/17 07:54:57;;;;;;;;;;;;;;;33.10;63.67;100594.03;5039502;28;70315;-40
2023/10/17 07:57:35;;;;;;;;;;;;;;;33.13;63.72;100587.28;5039403;28;66381;-40
2023/10/17 08:03:40;;;;;;;;;;;;;;;33.20;63.48;100587.94;5038443;28;66028;-39
2023/10/17 08:06:05;;;;;;;;;;;;;;;33.24;63.29;100597.28;5038872;28;70775;-39
2023/10/17 08:08:44;;;;;;;;;;;;;;;33.28;62.94;100586.75;5039987;28;65928;-40
2023/10/17 08:11:37;;;;;;;;;;;;;;;33.30;62.97;100585.44;5038903;28;69827;-40
2023/10/17 08:14:16;;;;;;;;;;;;;;;33.33;62.95;100581.41;5039351;28;65317;-40
2023/10/17 08:16:49;;;;;;;;;;;;;;;33.37;62.65;100596.97;5039025;28;70386;-39
2023/10/17 08:19:22;;;;;;;;;;;;;;;33.38;63.18;100593.19;5038474;28;66568;-40
2023/10/17 08:27:13;;;;;;;;;;;;;;;33.46;62.84;100611.00;5038482;28;70352;-40
2023/10/17 08:29:45;;;;;;;;;;;;;;;33.50;62.12;100616.78;5040017;28;67074;-40
2023/10/17 08:34:59;;;;;;;;;;;;;;;33.56;61.79;100621.25;5040082;28;65830;-40
2023/10/17 08:37:40;;;;;;;;;;;;;;;33.59;62.08;100616.16;5035882;28;69927;-41
2023/10/17 08:43:06;;;;;;;;;;;;;;;33.63;61.82;100626.53;5038128;28;70374;-39
2023/10/17 08:45:39;;;;;;;;;;;;;;;33.65;61.76;100630.66;5039781;28;66978;-40
2023/10/17 08:48:11;;;;;;;;;;;;;;;33.66;62.26;100623.34;5038834;28;70464;-39
2023/10/17 08:50:43;;;;;;;;;;;;;;;33.65;61.79;100625.22;5035417;28;67915;-39
2023/10/17 08:55:48;;;;;;;;;;;;;;;33.71;61.64;100618.81;5039366;28;66740;-40
2023/10/17 08:58:24;;;;;;;;;;;;;;;33.71;61.55;100616.09;5039131;28;70367;-40
2023/10/17 09:01:07;;;;;;;;;;;;;;;33.74;61.73;100622.91;5049019;28;66572;-40
2023/10/17 09:03:49;;;;;;;;;;;;;;;33.75;61.31;100630.84;5043077;28;69587;-39
2023/10/17 09:11:41;;;;;;;;;;;;;;;33.77;61.65;100633.34;5043485;28;65750;-40
2023/10/17 09:14:27;;;;;;;;;;;;;;;33.77;61.21;100630.63;5040498;28;70795;-40
2023/10/17 09:17:00;;;;;;;;;;;;;;;33.76;61.22;100643.38;5043913;28;65345;-39
2023/10/17 09:19:52;;;;;;;;;;;;;;;33.77;61.44;100650.47;5041305;28;70031;-40
2023/10/17 09:22:22;;;;;;;;;;;;;;;33.77;61.65;100655.91;5041868;28;66679;-40
2023/10/17 09:24:51;;;;;;;;;;;;;;;33.78;61.40;100660.28;5038295;28;71066;-40
2023/10/17 09:27:21;;;;;;;;;;;;;;;33.75;61.44;100668.94;5042749;28;66504;-40
2023/10/17 09:29:52;;;;;;;;;;;;;;;33.75;61.60;100668.94;5042802;28;69383;-40
2023/10/17 09:32:40;;;;;;;;;;;;;;;33.74;61.56;100678.19;5041627;28;66996;-40
2023/10/17 09:35:15;;;;;;;;;;;;;;;33.74;61.72;100689.06;5042743;28;70317;-40
2023/10/17 09:37:46;;;;;;;;;;;;;;;33.73;61.46;100692.00;5045803;28;66820;-41
2023/10/17 09:40:27;;;;;;;;;;;;;;;33.73;61.71;100698.25;5051528;28;71790;-41
2023/10/17 09:42:58;;;;;;;;;;;;;;;33.73;62.01;100701.00;5041694;28;66013;-39
2023/10/17 09:45:31;;;;;;;;;;;;;;;33.70;62.48;100703.38;5042136;28;70057;-41
2023/10/17 09:48:04;;;;;;;;;;;;;;;33.69;63.18;100693.59;5041715;28;66920;-39
2023/10/17 09:50:38;;;;;;;;;;;;;;;33.69;63.21;100686.25;5042240;28;70362;-41
2023/10/17 09:53:15;;;;;;;;;;;;;;;33.65;63.85;100695.13;5039169;28;66262;-40
2023/10/17 09:55:49;;;;;;;;;;;;;;;33.65;63.45;100695.94;5043035;28;69747;-41
2023/10/17 09:58:23;;;;;;;;;;;;;;;33.62;63.91;100696.44;5036327;28;65499;-40
2023/10/17 10:00:55;;;;;;;;;;;;;;;33.61;64.15;100694.78;5041430;28;70660;-40
2023/10/17 10:03:28;;;;;;;;;;;;;;;33.60;64.09;100701.31;5042061;28;66993;-40
2023/10/17 10:06:16;;;;;;;;;;;;;;;33.57;64.43;100699.03;5042005;28;70959;-39
2023/10/17 10:08:46;;;;;;;;;;;;;;;33.58;64.21;100700.72;5038678;28;66026;-40
2023/10/17 10:11:16;;;;;;;;;;;;;;;33.56;64.73;100691.97;5039840;28;69936;-40
2023/10/17 10:14:02;;;;;;;;;;;;;;;33.53;64.81;100697.91;5040020;28;66636;-40
2023/10/17 10:16:51;;;;;;;;;;;;;;;33.48;65.12;100701.31;5040548;28;69559;-39
2023/10/17 10:19:46;;;;;;;;;;;;;;;33.47;64.83;100705.09;5038863;28;66128;-41
2023/10/17 10:22:16;;;;;;;;;;;;;;;33.05;66.73;100716.22;5037539;28;69404;-41
2023/10/17 10:24:47;;;;;;;;;;;;;;;32.84;68.01;100717.63;5037393;28;66407;-40
2023/10/17 10:29:54;;;;;;;;;;;;;;;32.64;69.05;100736.16;5038864;28;66313;-40
2023/10/17 10:32:25;;;;;;;;;;;;;;;32.58;69.55;100751.53;5040186;28;71222;-41
2023/10/17 10:34:54;;;;;;;;;;;;;;;32.51;70.02;100760.84;5036226;28;66037;-41
2023/10/17 10:37:25;;;;;;;;;;;;;;;32.47;70.02;100766.72;5039838;28;70534;-40
2023/10/17 10:40:17;;;;;;;;;;;;;;;32.44;70.22;100769.06;5037883;28;66748;-40
2023/10/17 10:42:48;;;;;;;;;;;;;;;32.40;70.54;100776.84;5038466;28;70078;-41
2023/10/17 10:45:42;;;;;;;;;;;;;;;32.39;70.51;100786.03;5054178;28;68270;-40
2023/10/17 10:48:15;;;;;;;;;;;;;;;32.36;70.80;100791.94;5037118;28;68807;-39
2023/10/17 10:50:46;;;;;;;;;;;;;;;32.35;70.96;100795.72;5052694;28;66698;-41
2023/10/17 10:53:21;;;;;;;;;;;;;;;32.32;71.22;100796.19;5049291;28;69312;-46
2023/10/17 10:55:52;;;;;;;;;;;;;;;32.32;71.10;100785.34;5045848;28;66006;-40
2023/10/17 10:58:25;;;;;;;;;;;;;;;32.32;71.15;100796.19;5048349;28;71065;-46
2023/10/17 11:00:58;;;;;;;;;;;;;;;32.29;71.15;100793.94;5043193;28;65699;-42
2023/10/17 11:03:31;;;;;;;;;;;;;;;32.27;71.19;100793.34;5048656;28;70366;-42
2023/10/17 11:06:04;;;;;;;;;;;;;;;32.27;71.13;100793.34;5046440;28;66525;-41
2023/10/17 11:08:40;;;;;;;;;;;;;;;32.24;71.28;100800.06;5046769;28;69037;-44
2023/10/17 11:11:19;;;;;;;;;;;;;;;32.25;71.58;100800.88;5046827;28;66840;-42
2023/10/17 11:13:50;;;;;;;;;;;;;;;32.21;71.79;100799.72;5043331;28;70261;-43
2023/10/17 11:16:21;;;;;;;;;;;;;;;32.17;71.82;100793.88;5042032;28;68338;-42
2023/10/17 11:18:51;;;;;;;;;;;;;;;32.15;71.96;100804.19;5036646;28;70308;-42
2023/10/17 11:21:23;;;;;;;;;;;;;;;32.10;72.02;100797.78;5039665;28;65523;-41
2023/10/17 11:24:09;;;;;;;;;;;;;;;32.05;72.16;100791.16;5041287;28;70401;-42
2023/10/17 11:26:42;;;;;;;;;;;;;;;32.05;72.28;100803.88;5040581;28;66583;-41
2023/10/17 11:29:12;;;;;;;;;;;;;;;32.00;72.58;100796.44;5028078;28;69645;-42
2023/10/17 11:31:42;;;;;;;;;;;;;;;32.00;73.06;100810.00;5033759;28;66907;-41
2023/10/17 11:34:13;;;;;;;;;;;;;;;31.97;73.11;100810.47;5036627;28;70475;-41
2023/10/17 11:36:47;;;;;;;;;;;;;;;31.94;73.12;100810.91;5041195;28;66896;-44
2023/10/17 11:39:18;;;;;;;;;;;;;;;31.93;73.37;100820.13;5040672;28;69302;-42
2023/10/17 11:41:59;;;;;;;;;;;;;;;31.92;73.45;100823.06;5040430;28;66861;-42
2023/10/17 11:44:31;;;;;;;;;;;;;;;31.90;73.68;100830.56;5041056;28;70359;-41
2023/10/17 11:47:20;;;;;;;;;;;;;;;31.88;73.42;100836.22;5047964;28;67343;-43
2023/10/17 11:49:50;;;;;;;;;;;;;;;31.86;73.70;100849.19;5054986;28;70678;-42
2023/10/17 11:52:20;;;;;;;;;;;;;;;31.82;73.81;100853.41;5046202;28;66901;-42
2023/10/17 11:54:53;;;;;;;;;;;;;;;31.82;73.92;100866.97;5041970;28;70267;-41
2023/10/17 11:57:24;;;;;;;;;;;;;;;31.78;74.08;100860.34;5038443;28;66032;-40
2023/10/17 11:59:57;;;;;;;;;;;;;;;31.77;74.11;100869.53;5040095;28;68676;-42
2023/10/17 12:02:29;;;;;;;;;;;;;;;31.75;74.15;100877.06;5040147;28;65248;-43
2023/10/17 12:05:00;;;;;;;;;;;;;;;31.74;74.41;100886.28;5038588;28;70363;-41
2023/10/17 12:07:30;;;;;;;;;;;;;;;31.69;74.53;100881.50;5035565;28;67092;-43
2023/10/17 12:10:04;;;;;;;;;;;;;;;31.69;74.47;100886.13;5040743;28;69605;-42
2023/10/17 12:12:35;;;;;;;;;;;;;;;31.68;74.49;100884.44;5041053;28;66713;-41
2023/10/17 12:15:04;;;;;;;;;;;;;;;31.63;75.00;100895.97;5039169;28;70674;-42
2023/10/17 12:17:35;;;;;;;;;;;;;;;31.61;74.73;100890.78;5039389;28;66200;-42
2023/10/17 12:20:13;;;;;;;;;;;;;;;31.60;74.85;100902.69;5038788;28;70315;-41
2023/10/17 12:22:46;;;;;;;;;;;;;;;31.59;75.32;100905.59;5041222;28;65800;-44
2023/10/17 12:25:16;;;;;;;;;;;;;;;31.57;75.40;100915.88;5036275;28;69253;-42
2023/10/17 12:27:49;;;;;;;;;;;;;;;31.55;75.70;100928.81;5036976;28;66601;-42
2023/10/17 12:30:28;;;;;;;;;;;;;;;31.52;75.71;100931.97;5039499;28;69235;-42
2023/10/17 12:32:58;;;;;;;;;;;;;;;31.53;75.92;100939.03;5040375;28;66293;-43
2023/10/17 12:35:30;;;;;;;;;;;;;;;31.48;76.34;100937.03;5041491;28;70299;-43
2023/10/17 12:38:24;;;;;;;;;;;;;;;31.50;76.32;100936.78;5042943;28;66017;-43
2023/10/17 12:40:52;;;;;;;;;;;;;;;31.46;76.46;100943.72;5031816;28;68697;-42
2023/10/17 12:43:22;;;;;;;;;;;;;;;31.45;76.93;100953.69;5042909;28;66227;-40
2023/10/17 12:45:52;;;;;;;;;;;;;;;31.47;77.19;100961.63;5047488;28;70651;-43
2023/10/17 12:48:22;;;;;;;;;;;;;;;31.47;77.44;100962.44;5043741;28;66344;-42
2023/10/17 12:50:52;;;;;;;;;;;;;;;31.51;77.71;100968.25;5044341;28;70288;-43
2023/10/17 12:53:22;;;;;;;;;;;;;;;31.50;77.75;100975.56;5042524;28;66705;-41
2023/10/17 12:55:51;;;;;;;;;;;;;;;31.48;77.40;100980.41;5044275;28;70648;-41
2023/10/17 12:58:22;;;;;;;;;;;;;;;31.48;77.42;100995.81;5040834;28;65701;-41
2023/10/17 13:00:52;;;;;;;;;;;;;;;31.47;77.29;101011.25;5038354;28;70002;-42
2023/10/17 13:03:22;;;;;;;;;;;;;;;31.47;77.38;101016.66;5043237;28;65733;-42
2023/10/17 13:05:52;;;;;;;;;;;;;;;31.47;77.75;101021.28;5042209;28;69992;-43
2023/10/17 13:08:22;;;;;;;;;;;;;;;31.47;77.48;101027.50;5028674;28;66566;-42
2023/10/17 13:10:55;;;;;;;;;;;;;;;31.45;77.17;101024.19;5043469;28;70661;-42
2023/10/17 13:13:25;;;;;;;;;;;;;;;31.45;77.46;101035.03;5042600;28;66078;-41
2023/10/17 13:15:57;;;;;;;;;;;;;;;31.46;77.30;101036.72;5042847;28;69978;-41
2023/10/17 13:18:30;;;;;;;;;;;;;;;31.46;77.05;101052.97;5039967;28;66341;-42
2023/10/17 13:21:12;;;;;;;;;;;;;;;31.44;76.66;101055.06;5051858;28;70521;-42
2023/10/17 13:23:44;;;;;;;;;;;;;;;31.42;76.61;101057.16;5053919;28;66691;-40
2023/10/17 13:26:22;;;;;;;;;;;;;;;31.41;76.53;101060.94;5042308;28;69813;-42
2023/10/17 13:28:54;;;;;;;;;;;;;;;31.39;76.14;101068.44;5046475;28;66815;-42
2023/10/17 13:31:24;;;;;;;;;;;;;;;31.37;76.01;101062.41;5039107;28;68963;-41
2023/10/17 13:33:55;;;;;;;;;;;;;;;31.35;76.02;101056.38;5043782;28;66694;-42
2023/10/17 13:36:27;;;;;;;;;;;;;;;31.33;75.81;101059.28;5039985;28;70565;-42
2023/10/17 13:38:57;;;;;;;;;;;;;;;31.32;75.55;101054.91;5040947;28;66417;-42
2023/10/17 13:41:29;;;;;;;;;;;;;;;31.30;75.64;101058.91;5042573;28;69762;-43
2023/10/17 13:43:58;;;;;;;;;;;;;;;31.30;75.03;101056.19;5042644;28;66565;-42
2023/10/17 13:46:32;;;;;;;;;;;;;;;31.29;74.85;101065.38;5042687;28;70277;-42
2023/10/17 13:49:02;;;;;;;;;;;;;;;31.27;75.12;101059.34;5039637;28;67189;-40
2023/10/17 13:51:34;;;;;;;;;;;;;;;31.27;75.01;101062.03;5040871;28;69249;-41
2023/10/17 13:54:05;;;;;;;;;;;;;;;31.25;74.84;101056.00;5043344;28;66605;-41
2023/10/17 13:56:36;;;;;;;;;;;;;;;31.25;75.05;101039.75;5046485;28;70078;-42
2023/10/17 13:59:09;;;;;;;;;;;;;;;31.23;75.14;101047.25;5041199;28;66687;-41
2023/10/17 14:01:42;;;;;;;;;;;;;;;31.22;74.80;101045.59;5032314;28;70332;-41
2023/10/17 14:04:11;;;;;;;;;;;;;;;31.21;74.71;101052.09;5040611;28;65955;-41
2023/10/17 14:06:45;;;;;;;;;;;;;;;31.19;74.57;101046.03;5042398;28;70013;-42
2023/10/17 14:09:15;;;;;;;;;;;;;;;31.16;74.45;101037.28;5043112;28;66661;-41
2023/10/17 14:11:48;;;;;;;;;;;;;;;31.16;74.31;101037.28;5040674;28;70509;-41
2023/10/17 14:14:21;;;;;;;;;;;;;;;31.15;74.30;101030.22;5035606;28;65575;-42
2023/10/17 14:16:51;;;;;;;;;;;;;;;31.14;74.27;101038.56;5042157;28;69845;-41
2023/10/17 14:25:07;;;;;;;;;;;;;;;31.13;74.25;101031.50;5020009;28;67064;-42
2023/10/17 14:27:37;;;;;;;;;;;;;;;31.12;74.43;101035.22;5040508;28;70034;-41
2023/10/17 14:30:07;;;;;;;;;;;;;;;31.11;74.58;101036.28;5034788;28;66550;-42
2023/10/17 14:32:37;;;;;;;;;;;;;;;31.10;74.36;101032.75;5037951;28;70219;-42
2023/10/17 14:35:07;;;;;;;;;;;;;;;31.10;74.39;101032.75;5036825;28;65485;-43
2023/10/17 14:37:37;;;;;;;;;;;;;;;31.08;74.18;101039.44;5057294;28;69594;-42
2023/10/17 14:40:11;;;;;;;;;;;;;;;31.08;74.22;101029.44;5039617;28;66116;-42
2023/10/17 14:42:41;;;;;;;;;;;;;;;31.00;72.98;101048.66;5039614;28;70355;-40
2023/10/17 14:45:12;;;;;;;;;;;;;;;30.89;71.46;101047.44;5042628;28;65083;-39
2023/10/17 14:47:44;;;;;;;;;;;;;;;30.81;70.67;101044.16;5042363;28;70789;-39
2023/10/17 14:50:14;;;;;;;;;;;;;;;30.72;69.72;101057.91;5038323;28;66900;-39
2023/10/17 14:52:44;;;;;;;;;;;;;;;30.68;69.15;101056.72;5025121;28;71291;-39
2023/10/17 14:55:23;;;;;;;;;;;;;;;30.62;67.90;101057.56;5039117;28;66789;-40
2023/10/17 14:57:53;;;;;;;;;;;;;;;30.57;67.40;101070.91;5042164;28;70334;-40
2023/10/17 15:00:23;;;;;;;;;;;;;;;30.51;66.44;101071.78;5040602;28;66415;-39
2023/10/17 15:02:53;;;;;;;;;;;;;;;30.45;65.95;101061.78;5043194;28;70425;-39
2023/10/17 15:05:24;;;;;;;;;;;;;;;30.39;65.11;101070.75;5042754;28;65578;-40
2023/10/17 15:07:54;;;;;;;;;;;;;;;30.38;64.75;101074.50;5038876;28;69829;-39
2023/10/17 15:10:24;;;;;;;;;;;;;;;30.32;64.58;101072.66;5037843;28;66532;-40
2023/10/17 15:12:55;;;;;;;;;;;;;;;30.25;63.78;101073.47;5037158;28;69221;-39
2023/10/17 15:15:25;;;;;;;;;;;;;;;30.19;63.63;101078.88;5037657;28;66258;-39
2023/10/17 15:17:55;;;;;;;;;;;;;;;30.12;62.69;101070.78;5040034;28;70464;-41
2023/10/17 15:20:25;;;;;;;;;;;;;;;30.08;62.66;101076.81;5040146;28;66640;-39
2023/10/17 15:22:55;;;;;;;;;;;;;;;30.02;62.29;101073.09;5042282;28;69424;-39
2023/10/17 15:25:25;;;;;;;;;;;;;;;29.98;61.96;101077.28;5028083;28;66045;-40
2023/10/17 15:27:55;;;;;;;;;;;;;;;29.94;60.85;101081.41;5040358;28;70512;-39
2023/10/17 15:30:28;;;;;;;;;;;;;;;29.87;60.80;101081.44;5040951;28;65355;-39
2023/10/17 15:33:06;;;;;;;;;;;;;;;29.85;60.10;101080.81;5041969;28;69876;-39
2023/10/17 15:35:38;;;;;;;;;;;;;;;29.81;59.78;101074.13;5041741;28;66185;-40
2023/10/17 15:38:08;;;;;;;;;;;;;;;29.78;59.25;101078.09;5040295;28;70414;-41
2023/10/17 15:40:38;;;;;;;;;;;;;;;29.73;59.05;101069.78;5024834;28;66873;-41
2023/10/17 15:43:08;;;;;;;;;;;;;;;29.80;59.24;101086.00;5041975;28;70716;-39
2023/10/17 15:45:48;;;;;;;;;;;;;;;29.92;58.53;101080.78;5043587;28;67253;-41
2023/10/17 15:48:20;;;;;;;;;;;;;;;29.95;57.47;101074.97;5041633;28;70885;-41
2023/10/17 15:51:00;;;;;;;;;;;;;;;29.97;56.43;101075.59;5042469;28;66581;-39
2023/10/17 15:53:31;;;;;;;;;;;;;;;29.97;56.51;101064.75;5041473;28;69916;-40
2023/10/17 15:56:02;;;;;;;;;;;;;;;29.98;56.59;101066.44;5041900;28;65724;-39
2023/10/17 15:58:32;;;;;;;;;;;;;;;29.98;55.57;101063.75;5040449;28;68532;-40
2023/10/17 16:01:01;;;;;;;;;;;;;;;29.97;54.92;101067.47;5039650;28;66071;-39